createdAt,value
2023-01-18T00:00:20.943Z,89.66
2023-01-18T00:05:24.055Z,89.37
2023-01-18T00:10:26.903Z,88.98
2023-01-18T00:15:30.859Z,89.87
2023-01-18T00:20:33.402Z,89.21
2023-01-18T00:25:35.999Z,89.76
2023-01-18T00:30:39.932Z,89.33
2023-01-18T00:35:42.516Z,89.75
2023-01-18T00:40:45.161Z,90.02
2023-01-18T00:45:47.728Z,89.73
2023-01-18T00:50:50.245Z,90.12
2023-01-18T00:55:52.798Z,90.09
2023-01-18T01:00:55.523Z,89.95
2023-01-18T01:06:17.073Z,90.70
2023-01-18T01:11:19.727Z,90.38
2023-01-18T01:16:41.468Z,90.56
2023-01-18T01:22:02.852Z,90.17
2023-01-18T01:27:05.430Z,90.40
2023-01-18T01:32:08.487Z,91.12
2023-01-18T01:37:11.086Z,90.42
2023-01-18T01:42:13.612Z,91.02
2023-01-18T01:47:39.818Z,90.85
2023-01-18T01:52:45.899Z,90.72
2023-01-18T01:58:11.601Z,90.74
2023-01-18T02:03:20.293Z,90.00
2023-01-18T02:08:23.438Z,89.89
2023-01-18T02:13:26.750Z,90.62
2023-01-18T02:18:40.504Z,89.96
2023-01-18T02:24:07.349Z,90.64
2023-01-18T02:29:18.939Z,90.47
2023-01-18T02:34:41.689Z,90.23
2023-01-18T02:40:13.894Z,90.41
2023-01-18T02:45:44.223Z,90.67
2023-01-18T02:50:48.909Z,90.30
2023-01-18T02:56:18.975Z,90.60
2023-01-18T03:01:37.040Z,89.85
2023-01-18T03:06:42.897Z,90.36
2023-01-18T03:11:50.944Z,90.14
2023-01-18T03:17:17.945Z,90.27
2023-01-18T03:22:40.581Z,90.53
2023-01-18T03:28:04.314Z,90.74
2023-01-18T03:33:27.203Z,90.77
2023-01-18T03:38:31.968Z,90.23
2023-01-18T03:43:37.943Z,90.48
2023-01-18T03:48:40.724Z,89.54
2023-01-18T03:53:56.129Z,89.52
2023-01-18T03:59:03.400Z,89.86
2023-01-18T04:04:05.966Z,89.56
2023-01-18T04:09:08.643Z,89.85
2023-01-18T04:14:11.178Z,89.76
2023-01-18T04:19:13.801Z,89.53
2023-01-18T04:24:17.381Z,89.21
2023-01-18T04:29:19.962Z,88.94
2023-01-18T04:34:23.115Z,89.19
2023-01-18T04:39:25.757Z,88.75
2023-01-18T04:44:28.354Z,89.34
2023-01-18T04:49:33.210Z,88.27
2023-01-18T04:54:35.780Z,88.20
2023-01-18T04:59:39.411Z,88.49
2023-01-18T05:04:42.152Z,88.64
2023-01-18T05:09:44.740Z,88.71
2023-01-18T05:14:47.317Z,88.62
2023-01-18T05:19:49.910Z,87.80
2023-01-18T05:24:52.527Z,88.30
2023-01-18T05:29:55.068Z,88.29
2023-01-18T05:34:57.610Z,88.14
2023-01-18T05:40:00.306Z,88.12
2023-01-18T05:45:02.970Z,88.30
2023-01-18T05:50:07.290Z,88.35
2023-01-18T05:55:09.863Z,87.73
2023-01-18T06:00:12.729Z,88.42
2023-01-18T06:05:16.072Z,88.13
2023-01-18T06:10:19.068Z,87.70
2023-01-18T06:15:21.666Z,87.41
2023-01-18T06:20:25.036Z,87.81
2023-01-18T06:25:27.752Z,87.38
2023-01-18T06:30:30.382Z,87.78
2023-01-18T06:35:37.138Z,87.57
2023-01-18T06:40:39.872Z,87.49
2023-01-18T06:45:42.583Z,87.08
2023-01-18T06:50:45.190Z,87.30
2023-01-18T06:55:59.069Z,87.45
2023-01-18T07:01:01.852Z,87.35
2023-01-18T07:06:05.907Z,86.61
2023-01-18T07:11:10.467Z,86.61
2023-01-18T07:16:17.630Z,86.32
2023-01-18T07:21:22.935Z,86.63
2023-01-18T07:26:26.245Z,86.34
2023-01-18T07:31:30.348Z,86.00
2023-01-18T07:36:32.983Z,86.13
2023-01-18T07:41:35.529Z,86.06
2023-01-18T07:46:38.690Z,85.34
2023-01-18T07:51:42.647Z,85.61
2023-01-18T07:56:45.336Z,84.77
2023-01-18T08:01:47.891Z,85.05
2023-01-18T08:06:51.435Z,85.08
2023-01-18T08:11:54.093Z,84.95
2023-01-18T08:16:56.738Z,84.48
2023-01-18T08:21:59.289Z,84.17
2023-01-18T08:27:01.961Z,84.51
2023-01-18T08:32:04.665Z,84.17
2023-01-18T08:37:07.322Z,83.69
2023-01-18T08:42:12.852Z,84.48
2023-01-18T08:47:16.158Z,84.43
2023-01-18T08:52:18.724Z,84.65
2023-01-18T08:57:21.801Z,84.13
2023-01-18T09:02:27.415Z,83.65
2023-01-18T09:07:30.039Z,83.83
2023-01-18T09:12:34.928Z,83.76
2023-01-18T09:17:37.529Z,83.45
2023-01-18T09:22:40.201Z,83.47
2023-01-18T09:27:43.196Z,83.30
2023-01-18T09:32:45.814Z,83.96
2023-01-18T09:37:48.506Z,83.08
2023-01-18T09:42:52.766Z,83.32
2023-01-18T09:48:05.884Z,83.30
2023-01-18T09:53:26.972Z,83.32
2023-01-18T09:59:15.226Z,83.20
2023-01-18T10:04:20.676Z,82.65
2023-01-18T10:09:30.086Z,82.96
2023-01-18T10:15:31.961Z,82.56
2023-01-18T10:20:57.326Z,83.05
2023-01-18T10:26:04.095Z,82.65
2023-01-18T10:31:44.403Z,83.48
2023-01-18T10:36:55.365Z,83.83
2023-01-18T10:42:02.744Z,83.99
2023-01-18T10:47:06.160Z,84.33
2023-01-18T10:52:28.718Z,84.41
2023-01-18T10:57:37.448Z,84.26
2023-01-18T11:02:40.641Z,84.01
2023-01-18T11:07:43.302Z,84.57
2023-01-18T11:12:48.082Z,83.99
2023-01-18T11:17:50.744Z,84.55
2023-01-18T11:23:01.813Z,84.68
2023-01-18T11:28:07.575Z,84.79
2023-01-18T11:33:18.685Z,85.17
2023-01-18T11:38:26.780Z,84.70
2023-01-18T11:43:32.770Z,85.76
2023-01-18T11:48:42.249Z,85.72
2023-01-18T11:53:54.407Z,86.72
2023-01-18T11:58:57.330Z,86.65
2023-01-18T12:04:23.326Z,86.63
2023-01-18T12:09:43.416Z,87.78
2023-01-18T12:15:43.179Z,87.60
2023-01-18T12:21:27.579Z,87.69
2023-01-18T12:26:35.807Z,87.31
2023-01-18T12:31:40.960Z,87.66
2023-01-18T12:36:49.387Z,87.73
2023-01-18T12:42:05.817Z,87.38
2023-01-18T12:47:39.614Z,87.42
2023-01-18T12:53:02.966Z,86.56
2023-01-18T12:58:06.643Z,86.33
2023-01-18T13:03:16.566Z,86.40
2023-01-18T13:08:59.715Z,85.82
2023-01-18T13:14:33.587Z,85.60
2023-01-18T13:19:54.679Z,85.25
2023-01-18T13:25:19.492Z,85.30
2023-01-18T13:30:22.182Z,84.48
2023-01-18T13:35:33.317Z,84.37
2023-01-18T13:40:43.107Z,84.60
2023-01-18T13:46:08.329Z,84.20
2023-01-18T13:51:37.119Z,83.78
2023-01-18T13:56:40.624Z,83.06
2023-01-18T14:01:45.655Z,83.16
2023-01-18T14:06:49.589Z,83.54
2023-01-18T14:11:55.487Z,83.73
2023-01-18T14:17:12.942Z,83.05
2023-01-18T14:22:21.267Z,82.94
2023-01-18T14:27:28.517Z,83.11
2023-01-18T14:32:37.827Z,82.57
2023-01-18T14:37:40.354Z,83.10
2023-01-18T14:42:51.069Z,83.23
2023-01-18T14:47:59.445Z,82.78
2023-01-18T14:53:02.245Z,82.92
2023-01-18T14:58:14.774Z,82.74
2023-01-18T15:03:26.434Z,82.78
2023-01-18T15:08:31.450Z,82.01
2023-01-18T15:13:47.467Z,82.16
2023-01-18T15:18:52.197Z,82.04
2023-01-18T15:24:02.708Z,81.69
2023-01-18T15:29:13.651Z,81.33
2023-01-18T15:34:18.830Z,81.29
2023-01-18T15:39:21.591Z,80.74
2023-01-18T15:44:40.735Z,80.32
2023-01-18T15:49:51.999Z,80.54
2023-01-18T15:54:55.450Z,79.72
2023-01-18T16:00:01.900Z,79.65
2023-01-18T16:05:20.433Z,78.60
2023-01-18T16:10:33.114Z,78.65
2023-01-18T16:15:35.801Z,78.91
2023-01-18T16:20:38.854Z,78.61
2023-01-18T16:25:41.807Z,78.87
2023-01-18T16:30:50.286Z,78.88
2023-01-18T16:35:53.127Z,78.85
2023-01-18T16:40:55.695Z,78.20
2023-01-18T16:45:59.121Z,79.02
2023-01-18T16:51:01.970Z,78.51
2023-01-18T16:56:04.656Z,78.53
2023-01-18T17:01:12.799Z,79.15
2023-01-18T17:06:22.855Z,79.58
2023-01-18T17:11:25.615Z,80.50
2023-01-18T17:16:28.273Z,80.30
2023-01-18T17:21:30.971Z,80.36
2023-01-18T17:26:33.608Z,80.70
2023-01-18T17:31:41.661Z,80.38
2023-01-18T17:36:47.399Z,81.23
2023-01-18T17:41:50.130Z,82.08
2023-01-18T17:46:52.876Z,81.88
2023-01-18T17:51:55.558Z,82.32
2023-01-18T17:56:58.151Z,82.52
2023-01-18T18:02:00.776Z,82.54
2023-01-18T18:07:03.786Z,82.96
2023-01-18T18:12:10.473Z,83.44
2023-01-18T18:17:13.135Z,83.98
2023-01-18T18:22:15.975Z,84.18
2023-01-18T18:27:19.081Z,83.80
2023-01-18T18:32:24.499Z,84.49
2023-01-18T18:37:27.084Z,84.95
2023-01-18T18:42:29.683Z,85.46
2023-01-18T18:47:32.581Z,86.10
2023-01-18T18:52:35.412Z,85.61
2023-01-18T18:57:37.984Z,85.51
2023-01-18T19:02:40.552Z,86.39
2023-01-18T19:07:43.580Z,86.91
2023-01-18T19:12:46.117Z,86.04
2023-01-18T19:17:50.585Z,86.34
2023-01-18T19:22:53.343Z,87.35
2023-01-18T19:27:55.910Z,87.25
2023-01-18T19:33:00.031Z,88.48
2023-01-18T19:38:03.036Z,88.47
2023-01-18T19:43:05.755Z,87.98
2023-01-18T19:48:08.437Z,89.25
2023-01-18T19:53:11.139Z,89.72
2023-01-18T19:58:13.713Z,89.97
2023-01-18T20:03:16.308Z,90.00
2023-01-18T20:08:19.035Z,90.96
2023-01-18T20:13:21.588Z,90.92
2023-01-18T20:18:24.180Z,91.63
2023-01-18T20:23:26.718Z,91.09
2023-01-18T20:28:29.474Z,91.58
2023-01-18T20:33:33.644Z,91.32
2023-01-18T20:38:36.244Z,92.32
2023-01-18T20:43:39.020Z,92.13
2023-01-18T20:48:41.615Z,92.28
2023-01-18T20:53:44.234Z,92.50
2023-01-18T20:58:46.762Z,92.71
2023-01-18T21:03:54.573Z,92.72
2023-01-18T21:08:58.599Z,93.46
2023-01-18T21:14:01.380Z,92.90
2023-01-18T21:19:04.581Z,93.39
2023-01-18T21:24:07.426Z,93.55
2023-01-18T21:29:10.011Z,93.92
2023-01-18T21:34:12.715Z,94.23
2023-01-18T21:39:18.519Z,94.78
2023-01-18T21:44:39.521Z,94.82
2023-01-18T21:50:17.851Z,94.73
2023-01-18T21:55:21.854Z,94.50
2023-01-18T22:00:24.448Z,94.92
2023-01-18T22:05:27.077Z,94.99
2023-01-18T22:10:29.858Z,95.10
2023-01-18T22:15:32.546Z,94.79
2023-01-18T22:20:35.394Z,94.93
2023-01-18T22:25:38.053Z,94.24
2023-01-18T22:30:40.604Z,94.87
2023-01-18T22:35:43.564Z,95.13
2023-01-18T22:40:46.158Z,95.28
2023-01-18T22:45:55.442Z,95.29
2023-01-18T22:51:02.686Z,94.86
2023-01-18T22:56:08.665Z,95.04
2023-01-18T23:01:26.762Z,95.37
2023-01-18T23:06:42.287Z,95.59
2023-01-18T23:11:45.778Z,95.98
2023-01-18T23:17:07.121Z,95.48
2023-01-18T23:22:10.660Z,95.25
2023-01-18T23:27:13.179Z,95.70
2023-01-18T23:32:15.756Z,95.84
2023-01-18T23:37:18.332Z,95.29
2023-01-18T23:42:40.051Z,95.41
2023-01-18T23:48:01.843Z,95.85
2023-01-18T23:53:23.269Z,95.93
2023-01-18T23:58:26.087Z,95.63
